createdAt,value
2024-02-27T00:07:54.871Z,9.40
2024-02-27T00:19:55.309Z,10.40
2024-02-27T00:31:55.709Z,11.00
2024-02-27T00:43:56.164Z,14.10
2024-02-27T00:55:56.602Z,12.80
2024-02-27T01:07:57.123Z,8.60
2024-02-27T01:19:57.566Z,8.90
2024-02-27T01:31:57.992Z,6.40
2024-02-27T01:43:58.484Z,9.00
2024-02-27T01:55:58.917Z,7.30
2024-02-27T02:07:59.522Z,9.60
2024-02-27T02:19:59.861Z,9.00
2024-02-27T02:32:00.249Z,6.70
2024-02-27T02:44:01.200Z,7.10
2024-02-27T02:56:01.170Z,7.00
2024-02-27T03:08:01.592Z,7.50
2024-02-27T03:20:02.072Z,8.30
2024-02-27T03:32:02.527Z,7.40
2024-02-27T03:44:02.951Z,7.50
2024-02-27T03:56:03.413Z,7.20
2024-02-27T04:08:03.885Z,7.80
2024-02-27T04:20:04.571Z,7.70
2024-02-27T04:32:04.787Z,8.90
2024-02-27T04:44:05.229Z,7.50
2024-02-27T04:56:05.668Z,8.80
2024-02-27T05:08:06.175Z,8.20
2024-02-27T05:20:06.593Z,7.90
2024-02-27T05:32:07.066Z,5.50
2024-02-27T05:44:07.492Z,6.50
2024-02-27T05:56:07.950Z,11.90
2024-02-27T06:08:08.489Z,7.80
2024-02-27T06:20:09.512Z,9.10
2024-02-27T06:32:09.259Z,7.50
2024-02-27T06:44:09.741Z,9.60
2024-02-27T06:56:10.223Z,31.00
2024-02-27T07:08:10.682Z,29.00
2024-02-27T07:20:11.121Z,37.70
2024-02-27T07:32:11.562Z,30.70
2024-02-27T07:44:11.990Z,24.30
2024-02-27T07:56:12.452Z,12.50
2024-02-27T08:08:12.957Z,13.90
2024-02-27T08:20:13.388Z,11.50
2024-02-27T08:32:13.815Z,10.90
2024-02-27T08:44:14.230Z,8.10
2024-02-27T09:08:15.227Z,6.20
2024-02-27T09:20:15.616Z,11.50
2024-02-27T09:32:16.097Z,8.90
2024-02-27T09:44:16.571Z,6.30
2024-02-27T09:56:16.994Z,5.20
2024-02-27T10:08:17.439Z,7.60
2024-02-27T10:20:17.954Z,8.10
2024-02-27T10:32:18.532Z,7.60
2024-02-27T10:44:18.836Z,8.70
2024-02-27T10:56:19.325Z,6.20
2024-02-27T11:08:19.702Z,5.50
2024-02-27T11:20:20.164Z,5.80
2024-02-27T11:32:20.769Z,5.80
2024-02-27T11:44:21.105Z,6.10
2024-02-27T11:56:21.540Z,5.80
2024-02-27T12:08:21.980Z,6.80
2024-02-27T12:20:22.458Z,7.40
2024-02-27T12:32:22.924Z,7.50
2024-02-27T12:44:23.365Z,5.90
2024-02-27T12:56:23.783Z,6.50
2024-02-27T13:08:24.276Z,5.60
2024-02-27T13:20:24.744Z,5.90
2024-02-27T13:32:25.237Z,4.70
2024-02-27T13:44:25.654Z,7.20
2024-02-27T13:56:26.099Z,6.70
2024-02-27T14:08:26.510Z,6.50
2024-02-27T14:20:27.029Z,7.10
2024-02-27T14:32:29.536Z,5.40
2024-02-27T14:44:27.886Z,6.40
2024-02-27T14:56:28.348Z,4.80
2024-02-27T15:08:28.837Z,4.50
2024-02-27T15:20:29.259Z,5.60
2024-02-27T15:32:29.735Z,8.20
2024-02-27T15:44:30.148Z,6.10
2024-02-27T15:56:30.635Z,6.00
2024-02-27T16:08:31.148Z,7.40
2024-02-27T16:20:31.508Z,6.70
2024-02-27T16:32:32.065Z,5.50
2024-02-27T16:44:32.483Z,4.60
2024-02-27T16:56:32.881Z,9.20
2024-02-27T17:08:33.361Z,11.40
2024-02-27T17:20:33.781Z,12.20
2024-02-27T17:32:34.353Z,15.10
2024-02-27T17:44:34.678Z,8.30
2024-02-27T17:56:35.178Z,21.80
2024-02-27T18:08:35.607Z,22.80
2024-02-27T18:20:36.092Z,20.80
2024-02-27T18:32:36.544Z,18.30
2024-02-27T18:44:36.938Z,33.00
2024-02-27T18:56:37.423Z,18.60
2024-02-27T19:08:37.885Z,13.40
2024-02-27T19:20:38.482Z,17.90
2024-02-27T19:32:38.785Z,12.50
2024-02-27T19:44:39.205Z,20.20
2024-02-27T19:56:39.649Z,13.10
2024-02-27T20:08:40.132Z,17.60
2024-02-27T20:20:40.586Z,9.30
2024-02-27T20:32:41.032Z,12.80
2024-02-27T20:44:41.440Z,12.20
2024-02-27T20:56:41.943Z,14.30
2024-02-27T21:08:42.420Z,18.20
2024-02-27T21:20:42.857Z,14.10
2024-02-27T21:32:43.357Z,15.70
2024-02-27T21:44:43.750Z,21.10
2024-02-27T21:56:44.274Z,17.70
2024-02-27T22:08:44.660Z,25.30
2024-02-27T22:20:45.099Z,20.60
2024-02-27T22:32:45.559Z,18.30
2024-02-27T22:44:46.021Z,16.60
2024-02-27T22:56:46.469Z,18.00
2024-02-27T23:08:46.920Z,17.00
2024-02-27T23:20:47.564Z,16.90
2024-02-27T23:32:47.886Z,17.30
2024-02-27T23:44:48.282Z,14.60
2024-02-27T23:56:49.033Z,13.70
